createdAt,value
2022-11-05T00:01:58.959Z,12
2022-11-05T00:04:58.795Z,12
2022-11-05T00:07:58.801Z,12
2022-11-05T00:10:58.807Z,12
2022-11-05T00:13:58.815Z,12
2022-11-05T00:16:58.840Z,12
2022-11-05T00:19:58.903Z,12
2022-11-05T00:22:58.834Z,12
2022-11-05T00:25:58.825Z,12
2022-11-05T00:28:58.835Z,12
2022-11-05T00:31:58.848Z,12
2022-11-05T00:34:58.839Z,12
2022-11-05T00:37:58.877Z,12
2022-11-05T00:40:58.857Z,12
2022-11-05T00:43:58.858Z,12
2022-11-05T00:46:59.992Z,12
2022-11-05T00:49:58.879Z,12
2022-11-05T00:52:58.884Z,11.9
2022-11-05T00:55:58.916Z,12
2022-11-05T00:58:58.897Z,11.9
2022-11-05T01:01:59.076Z,11.9
2022-11-05T01:04:58.910Z,11.9
2022-11-05T01:07:58.919Z,11.9
2022-11-05T01:10:58.919Z,11.9
2022-11-05T01:13:58.950Z,11.9
2022-11-05T01:16:58.947Z,11.9
2022-11-05T01:19:58.943Z,11.9
2022-11-05T01:22:58.945Z,11.9
2022-11-05T01:25:58.953Z,11.9
2022-11-05T01:28:59.037Z,11.9
2022-11-05T01:31:59.155Z,11.9
2022-11-05T01:34:58.979Z,11.9
2022-11-05T01:37:58.990Z,11.9
2022-11-05T01:40:58.995Z,11.9
2022-11-05T01:43:58.999Z,11.9
2022-11-05T01:46:59.021Z,11.9
2022-11-05T01:49:59.043Z,11.9
2022-11-05T01:52:59.025Z,11.9
2022-11-05T01:55:59.040Z,11.9
2022-11-05T01:58:59.044Z,11.9
2022-11-05T02:01:59.230Z,11.9
2022-11-05T02:04:59.055Z,11.9
2022-11-05T02:07:59.091Z,11.9
2022-11-05T02:10:59.073Z,11.9
2022-11-05T02:13:59.083Z,11.9
2022-11-05T02:16:59.113Z,11.9
2022-11-05T02:19:59.100Z,11.9
2022-11-05T02:22:59.105Z,11.9
2022-11-05T02:25:59.143Z,11.9
2022-11-05T02:28:59.153Z,11.9
2022-11-05T02:31:59.308Z,11.9
2022-11-05T02:34:59.319Z,11.9
2022-11-05T02:37:59.154Z,11.9
2022-11-05T02:40:59.247Z,11.9
2022-11-05T02:43:59.202Z,11.9
2022-11-05T02:46:59.190Z,11.9
2022-11-05T02:49:59.189Z,11.9
2022-11-05T02:52:59.202Z,11.9
2022-11-05T02:55:59.212Z,11.9
2022-11-05T02:58:59.225Z,11.9
2022-11-05T03:01:59.366Z,11.9
2022-11-05T03:04:59.245Z,11.9
2022-11-05T03:07:59.254Z,11.9
2022-11-05T03:10:59.264Z,11.9
2022-11-05T03:13:59.274Z,11.9
2022-11-05T03:16:59.301Z,11.9
2022-11-05T03:19:59.321Z,11.9
2022-11-05T03:22:59.307Z,11.9
2022-11-05T03:25:59.318Z,11.9
2022-11-05T03:28:59.332Z,11.9
2022-11-05T03:31:59.354Z,11.9
2022-11-05T03:34:59.356Z,11.8
2022-11-05T03:37:59.391Z,11.9
2022-11-05T03:40:59.377Z,11.9
2022-11-05T03:43:59.390Z,11.8
2022-11-05T03:46:59.412Z,11.8
2022-11-05T03:49:59.411Z,11.8
2022-11-05T03:52:59.426Z,11.8
2022-11-05T03:55:59.554Z,11.8
2022-11-05T03:58:59.453Z,11.8
2022-11-05T04:01:59.559Z,11.8
2022-11-05T04:04:59.482Z,11.8
2022-11-05T04:07:59.495Z,11.8
2022-11-05T04:10:59.513Z,11.8
2022-11-05T04:13:59.551Z,11.8
2022-11-05T04:16:59.559Z,11.8
2022-11-05T04:19:59.548Z,11.8
2022-11-05T04:22:59.569Z,11.8
2022-11-05T04:25:59.580Z,11.8
2022-11-05T04:29:02.514Z,11.8
2022-11-05T04:31:59.649Z,11.8
2022-11-05T04:34:59.626Z,11.8
2022-11-05T04:37:59.636Z,11.8
2022-11-05T04:40:59.652Z,11.8
2022-11-05T04:43:59.671Z,11.8
2022-11-05T04:46:59.703Z,11.8
2022-11-05T04:49:59.722Z,11.8
2022-11-05T04:52:59.713Z,11.8
2022-11-05T04:55:59.731Z,11.8
2022-11-05T04:58:59.743Z,11.8
2022-11-05T05:01:59.833Z,11.8
2022-11-05T05:04:59.776Z,11.8
2022-11-05T05:07:59.818Z,11.8
2022-11-05T05:10:59.803Z,11.8
2022-11-05T05:13:59.816Z,11.8
2022-11-05T05:16:59.846Z,11.8
2022-11-05T05:19:59.847Z,11.8
2022-11-05T05:22:59.861Z,11.8
2022-11-05T05:25:59.911Z,11.8
2022-11-05T05:28:59.892Z,11.8
2022-11-05T05:31:59.919Z,11.8
2022-11-05T05:34:59.928Z,11.8
2022-11-05T05:37:59.949Z,11.8
2022-11-05T05:40:59.968Z,11.7
2022-11-05T05:43:59.997Z,11.8
2022-11-05T05:47:00.008Z,11.8
2022-11-05T05:49:59.997Z,11.7
2022-11-05T05:53:00.021Z,11.7
2022-11-05T05:56:00.033Z,11.7
2022-11-05T05:59:00.066Z,11.7
2022-11-05T06:02:00.201Z,11.7
2022-11-05T06:05:00.090Z,11.7
2022-11-05T06:08:00.094Z,11.7
2022-11-05T06:11:00.178Z,11.7
2022-11-05T06:14:00.121Z,11.7
2022-11-05T06:17:00.144Z,11.7
2022-11-05T06:20:00.188Z,11.7
2022-11-05T06:23:00.158Z,11.7
2022-11-05T06:26:00.175Z,11.7
2022-11-05T06:29:00.189Z,11.7
2022-11-05T06:32:00.210Z,11.7
2022-11-05T06:35:00.213Z,11.7
2022-11-05T06:38:00.245Z,11.6
2022-11-05T06:41:00.976Z,11.7
2022-11-05T06:44:00.244Z,11.6
2022-11-05T06:47:00.281Z,11.6
2022-11-05T06:50:00.272Z,11.6
2022-11-05T06:53:00.287Z,11.6
2022-11-05T06:56:00.320Z,11.6
2022-11-05T06:59:00.311Z,11.6
2022-11-05T07:02:00.380Z,11.6
2022-11-05T07:05:00.347Z,11.6
2022-11-05T07:08:00.349Z,11.6
2022-11-05T07:11:00.372Z,11.6
2022-11-05T07:14:00.408Z,11.6
2022-11-05T07:17:00.406Z,11.6
2022-11-05T07:20:00.405Z,11.6
2022-11-05T07:23:00.422Z,11.6
2022-11-05T07:26:00.433Z,11.6
2022-11-05T07:29:00.447Z,11.6
2022-11-05T07:32:00.489Z,11.6
2022-11-05T07:35:00.469Z,11.6
2022-11-05T07:38:00.482Z,11.6
2022-11-05T07:41:00.497Z,11.6
2022-11-05T07:44:00.508Z,11.6
2022-11-05T07:47:00.543Z,11.6
2022-11-05T07:50:00.560Z,11.6
2022-11-05T07:53:00.548Z,11.6
2022-11-05T07:56:00.564Z,11.6
2022-11-05T07:59:00.572Z,11.6
2022-11-05T08:02:00.779Z,11.6
2022-11-05T08:05:00.592Z,11.6
2022-11-05T08:08:00.639Z,11.6
2022-11-05T08:11:00.611Z,11.6
2022-11-05T08:14:00.618Z,11.6
2022-11-05T08:17:00.637Z,11.6
2022-11-05T08:20:00.632Z,11.6
2022-11-05T08:23:00.644Z,11.6
2022-11-05T08:26:00.761Z,11.5
2022-11-05T08:29:00.662Z,11.6
2022-11-05T08:32:00.679Z,11.5
2022-11-05T08:35:00.677Z,11.5
2022-11-05T08:38:00.719Z,11.5
2022-11-05T08:41:00.696Z,11.5
2022-11-05T08:44:00.731Z,11.5
2022-11-05T08:47:00.728Z,11.5
2022-11-05T08:50:00.722Z,11.5
2022-11-05T08:53:00.736Z,11.5
2022-11-05T08:56:00.747Z,11.5
2022-11-05T08:59:00.756Z,11.5
2022-11-05T09:02:00.894Z,11.5
2022-11-05T09:05:00.764Z,11.5
2022-11-05T09:08:01.716Z,11.5
2022-11-05T09:11:00.788Z,11.5
2022-11-05T09:14:00.797Z,11.5
2022-11-05T09:17:00.815Z,11.5
2022-11-05T09:20:00.934Z,11.4
2022-11-05T09:23:00.824Z,11.5
2022-11-05T09:26:00.830Z,11.4
2022-11-05T09:29:00.843Z,11.4
2022-11-05T09:32:00.860Z,11.4
2022-11-05T09:35:00.860Z,11.4
2022-11-05T09:38:01.337Z,11.4
2022-11-05T09:41:00.873Z,11.4
2022-11-05T09:44:00.882Z,11.4
2022-11-05T09:47:01.048Z,11.4
2022-11-05T09:50:00.902Z,11.4
2022-11-05T09:53:00.913Z,11.4
2022-11-05T09:56:00.942Z,11.4
2022-11-05T09:59:00.931Z,11.4
2022-11-05T10:02:01.061Z,11.4
2022-11-05T10:05:04.971Z,11.4
2022-11-05T10:08:00.954Z,11.4
2022-11-05T10:11:00.960Z,11.4
2022-11-05T10:14:00.996Z,11.4
2022-11-05T10:17:00.983Z,11.4
2022-11-05T10:20:01.010Z,11.4
2022-11-05T10:23:00.996Z,11.4
2022-11-05T10:26:01.006Z,11.4
2022-11-05T10:29:01.018Z,11.4
2022-11-05T10:32:01.044Z,11.4
2022-11-05T10:35:01.033Z,11.4
2022-11-05T10:38:01.042Z,11.4
2022-11-05T10:41:01.050Z,11.4
2022-11-05T10:44:01.057Z,11.4
2022-11-05T10:47:01.063Z,11.4
2022-11-05T10:50:01.095Z,11.4
2022-11-05T10:53:01.083Z,11.4
2022-11-05T10:56:01.085Z,11.4
2022-11-05T10:59:01.095Z,11.4
2022-11-05T11:02:01.261Z,11.4
2022-11-05T11:05:01.109Z,11.4
2022-11-05T11:08:01.240Z,11.4
2022-11-05T11:11:01.128Z,11.4
2022-11-05T11:14:01.143Z,11.4
2022-11-05T11:17:01.146Z,11.4
2022-11-05T11:20:01.145Z,11.4
2022-11-05T11:23:01.157Z,11.4
2022-11-05T11:26:01.192Z,11.4
2022-11-05T11:29:01.172Z,11.4
2022-11-05T11:32:01.190Z,11.4
2022-11-05T11:35:01.207Z,11.4
2022-11-05T11:38:01.195Z,11.4
2022-11-05T11:41:01.201Z,11.4
2022-11-05T11:44:01.329Z,11.4
2022-11-05T11:47:01.212Z,11.4
2022-11-05T11:50:01.222Z,11.4
2022-11-05T11:53:01.221Z,11.4
2022-11-05T11:56:01.226Z,11.4
2022-11-05T11:59:01.239Z,11.4
2022-11-05T12:02:01.377Z,11.4
2022-11-05T12:05:01.250Z,11.4
2022-11-05T12:08:01.259Z,11.4
2022-11-05T12:11:01.263Z,11.4
2022-11-05T12:14:01.268Z,11.4
2022-11-05T12:17:01.270Z,11.4
2022-11-05T12:20:01.313Z,11.4
2022-11-05T12:23:01.290Z,11.4
2022-11-05T12:26:01.294Z,11.4
2022-11-05T12:32:01.304Z,11.4
2022-11-05T12:35:01.308Z,11.4
2022-11-05T12:38:01.335Z,11.4
2022-11-05T12:41:01.319Z,11.4
2022-11-05T12:44:01.320Z,11.4
2022-11-05T12:47:01.325Z,11.4
2022-11-05T12:50:01.329Z,11.4
2022-11-05T12:53:01.340Z,11.4
2022-11-05T12:56:01.356Z,11.4
2022-11-05T12:59:01.332Z,11.4
2022-11-05T13:02:01.479Z,11.4
2022-11-05T13:05:01.340Z,11.4
2022-11-05T13:08:01.342Z,11.4
2022-11-05T13:11:01.343Z,11.4
2022-11-05T13:14:01.608Z,11.4
2022-11-05T13:17:01.378Z,11.4
2022-11-05T13:20:01.350Z,11.4
2022-11-05T13:23:01.350Z,11.4
2022-11-05T13:26:01.352Z,11.4
2022-11-05T13:29:01.356Z,11.4
2022-11-05T13:32:01.396Z,11.4
2022-11-05T13:35:01.379Z,11.4
2022-11-05T13:38:01.394Z,11.4
2022-11-05T13:41:01.407Z,11.4
2022-11-05T13:44:01.438Z,11.4
2022-11-05T13:47:01.449Z,11.4
2022-11-05T13:50:01.500Z,11.4
2022-11-05T13:53:01.495Z,11.4
2022-11-05T13:56:01.527Z,11.4
2022-11-05T13:59:01.545Z,11.4
2022-11-05T14:02:01.670Z,11.4
2022-11-05T14:05:01.947Z,11.4
2022-11-05T14:08:01.628Z,11.4
2022-11-05T14:11:01.630Z,11.4
2022-11-05T14:14:01.675Z,11.4
2022-11-05T14:17:01.674Z,11.4
2022-11-05T14:20:01.689Z,11.4
2022-11-05T14:23:03.965Z,11.4
2022-11-05T14:26:01.760Z,11.4
2022-11-05T14:29:01.762Z,11.4
2022-11-05T14:32:08.646Z,11.4
2022-11-05T14:35:01.820Z,11.4
2022-11-05T14:38:01.849Z,11.4
2022-11-05T14:41:01.859Z,11.4
2022-11-05T14:44:01.907Z,11.4
2022-11-05T14:47:01.913Z,11.4
2022-11-05T14:50:01.935Z,11.4
2022-11-05T14:53:01.958Z,11.4
2022-11-05T14:56:01.970Z,11.4
2022-11-05T14:59:01.992Z,11.4
2022-11-05T15:02:02.258Z,11.4
2022-11-05T15:05:02.043Z,11.4
2022-11-05T15:08:02.072Z,11.4
2022-11-05T15:11:02.091Z,11.4
2022-11-05T15:14:02.109Z,11.4
2022-11-05T15:17:02.137Z,11.4
2022-11-05T15:20:02.184Z,11.4
2022-11-05T15:23:02.187Z,11.4
2022-11-05T15:26:02.217Z,11.4
2022-11-05T15:29:02.243Z,11.4
2022-11-05T15:32:02.268Z,11.4
2022-11-05T15:35:02.293Z,11.4
2022-11-05T15:38:02.871Z,11.4
2022-11-05T15:41:02.345Z,11.4
2022-11-05T15:44:02.371Z,11.4
2022-11-05T15:47:02.426Z,11.4
2022-11-05T15:50:02.477Z,11.4
2022-11-05T15:53:27.719Z,11.4
2022-11-05T15:56:02.568Z,11.4
2022-11-05T15:59:02.466Z,11.4
2022-11-05T16:02:02.650Z,11.4
2022-11-05T16:05:02.504Z,11.4
2022-11-05T16:08:02.521Z,11.4
2022-11-05T16:11:02.539Z,11.4
2022-11-05T16:14:02.579Z,11.4
2022-11-05T16:17:02.575Z,11.4
2022-11-05T16:20:02.598Z,11.4
2022-11-05T16:23:02.628Z,11.4
2022-11-05T16:26:02.645Z,11.4
2022-11-05T16:29:02.672Z,11.4
2022-11-05T16:32:02.825Z,11.4
2022-11-05T16:35:02.707Z,11.4
2022-11-05T16:38:02.720Z,11.4
2022-11-05T16:41:02.731Z,11.4
2022-11-05T16:44:02.743Z,11.4
2022-11-05T16:47:02.740Z,11.4
2022-11-05T16:50:03.014Z,11.4
2022-11-05T16:53:02.769Z,11.4
2022-11-05T16:56:02.779Z,11.4
2022-11-05T16:59:02.794Z,11.4
2022-11-05T17:02:02.897Z,11.4
2022-11-05T17:05:02.827Z,11.4
2022-11-05T17:08:02.863Z,11.4
2022-11-05T17:11:02.853Z,11.4
2022-11-05T17:14:02.871Z,11.4
2022-11-05T17:17:02.888Z,11.4
2022-11-05T17:20:02.903Z,11.4
2022-11-05T17:23:02.919Z,11.4
2022-11-05T17:26:02.956Z,11.4
2022-11-05T17:29:02.949Z,11.4
2022-11-05T17:32:02.952Z,11.4
2022-11-05T17:35:02.960Z,11.4
2022-11-05T17:38:02.968Z,11.4
2022-11-05T17:41:02.971Z,11.4
2022-11-05T17:44:03.002Z,11.4
2022-11-05T17:47:02.993Z,11.4
2022-11-05T17:50:03.013Z,11.4
2022-11-05T17:53:03.023Z,11.4
2022-11-05T17:56:03.039Z,11.4
2022-11-05T17:59:03.048Z,11.4
2022-11-05T18:02:03.237Z,11.4
2022-11-05T18:05:03.084Z,11.4
2022-11-05T18:08:03.099Z,11.4
2022-11-05T18:11:03.110Z,11.4
2022-11-05T18:14:03.126Z,11.4
2022-11-05T18:17:03.141Z,11.4
2022-11-05T18:20:03.179Z,11.4
2022-11-05T18:23:03.165Z,11.4
2022-11-05T18:26:03.177Z,11.4
2022-11-05T18:29:03.188Z,11.4
2022-11-05T18:32:03.199Z,11.4
2022-11-05T18:35:03.202Z,11.4
2022-11-05T18:38:03.245Z,11.4
2022-11-05T18:41:03.231Z,11.4
2022-11-05T18:44:03.247Z,11.4
2022-11-05T18:47:03.258Z,11.4
2022-11-05T18:50:03.295Z,11.4
2022-11-05T18:53:03.305Z,11.4
2022-11-05T18:56:03.355Z,11.4
2022-11-05T18:59:30.426Z,11.4
2022-11-05T19:02:03.623Z,11.4
2022-11-05T19:08:03.403Z,11.4
2022-11-05T19:11:03.414Z,11.4
2022-11-05T19:14:03.458Z,11.4
2022-11-05T19:17:03.442Z,11.4
2022-11-05T19:20:03.452Z,11.3
2022-11-05T19:23:03.463Z,11.3
2022-11-05T19:26:03.471Z,11.4
2022-11-05T19:29:03.478Z,11.3
2022-11-05T19:32:03.523Z,11.3
2022-11-05T19:35:03.510Z,11.3
2022-11-05T19:38:03.536Z,11.3
2022-11-05T19:41:03.542Z,11.3
2022-11-05T19:44:03.568Z,11.3
2022-11-05T19:47:03.573Z,11.3
2022-11-05T19:50:03.807Z,11.3
2022-11-05T19:53:03.608Z,11.3
2022-11-05T19:56:03.624Z,11.3
2022-11-05T19:59:03.665Z,11.3
2022-11-05T20:02:03.779Z,11.3
2022-11-05T20:05:03.686Z,11.3
2022-11-05T20:08:03.716Z,11.3
2022-11-05T20:11:03.699Z,11.3
2022-11-05T20:14:03.711Z,11.3
2022-11-05T20:17:03.721Z,11.3
2022-11-05T20:20:03.725Z,11.3
2022-11-05T20:23:03.737Z,11.3
2022-11-05T20:26:03.874Z,11.3
2022-11-05T20:29:03.770Z,11.3
2022-11-05T20:32:03.802Z,11.3
2022-11-05T20:35:03.803Z,11.3
2022-11-05T20:38:03.826Z,11.3
2022-11-05T20:41:03.844Z,11.3
2022-11-05T20:44:03.893Z,11.3
2022-11-05T20:47:03.885Z,11.3
2022-11-05T20:50:03.898Z,11.3
2022-11-05T20:53:03.921Z,11.3
2022-11-05T20:56:07.737Z,11.3
2022-11-05T20:59:03.963Z,11.3
2022-11-05T21:02:04.228Z,11.3
2022-11-05T21:05:03.989Z,11.3
2022-11-05T21:08:03.999Z,11.3
2022-11-05T21:11:04.008Z,11.3
2022-11-05T21:14:04.020Z,11.3
2022-11-05T21:17:04.028Z,11.3
2022-11-05T21:20:04.072Z,11.3
2022-11-05T21:23:04.058Z,11.3
2022-11-05T21:26:04.073Z,11.3
2022-11-05T21:29:04.105Z,11.3
2022-11-05T21:32:04.100Z,11.3
2022-11-05T21:35:04.118Z,11.3
2022-11-05T21:38:04.160Z,11.3
2022-11-05T21:41:04.151Z,11.3
2022-11-05T21:44:04.168Z,11.3
2022-11-05T21:47:04.186Z,11.3
2022-11-05T21:50:04.201Z,11.3
2022-11-05T21:53:04.223Z,11.3
2022-11-05T21:56:04.262Z,11.3
2022-11-05T21:59:04.250Z,11.3
2022-11-05T22:02:04.447Z,11.2
2022-11-05T22:05:04.274Z,11.3
2022-11-05T22:08:04.287Z,11.2
2022-11-05T22:11:04.296Z,11.2
2022-11-05T22:14:04.340Z,11.2
2022-11-05T22:17:04.332Z,11.2
2022-11-05T22:20:04.350Z,11.2
2022-11-05T22:23:07.403Z,11.2
2022-11-05T22:26:04.389Z,11.2
2022-11-05T22:29:04.410Z,11.2
2022-11-05T22:32:04.441Z,11.2
2022-11-05T22:35:04.436Z,11.2
2022-11-05T22:38:04.447Z,11.2
2022-11-05T22:41:04.461Z,11.2
2022-11-05T22:44:04.480Z,11.2
2022-11-05T22:47:04.499Z,11.2
2022-11-05T22:50:04.639Z,11.2
2022-11-05T22:53:04.533Z,11.2
2022-11-05T22:56:04.545Z,11.2
2022-11-05T22:59:04.556Z,11.2
2022-11-05T23:02:09.367Z,11.2
2022-11-05T23:05:04.577Z,11.2
2022-11-05T23:08:04.619Z,11.2
2022-11-05T23:11:04.610Z,11.2
2022-11-05T23:14:04.628Z,11.1
2022-11-05T23:17:04.648Z,11.1
2022-11-05T23:20:04.664Z,11.1
2022-11-05T23:23:04.680Z,11.1
2022-11-05T23:26:04.712Z,11.1
2022-11-05T23:29:04.729Z,11.1
2022-11-05T23:32:04.725Z,11.1
2022-11-05T23:35:04.741Z,11.1
2022-11-05T23:38:04.760Z,11.1
2022-11-05T23:41:04.778Z,11.1
2022-11-05T23:44:04.820Z,11.1
2022-11-05T23:47:04.803Z,11.1
2022-11-05T23:50:04.811Z,11.1
2022-11-05T23:53:04.812Z,11.1
2022-11-05T23:56:04.816Z,11.1
2022-11-05T23:59:04.820Z,11.1
